Aviation Digital Data Service (ADDS)

Output produced by TAFs form (0422 UTC 26 January 2015)
found at http://aviationweather.gov/adds/tafs/
 
KCNM 252323Z 2600/2624 33007KT P6SM SKC